createdAt,value
2024-01-27T00:03:33.315Z,102022.41
2024-01-27T00:07:35.197Z,102029.06
2024-01-27T00:11:36.765Z,102023.81
2024-01-27T00:15:38.395Z,102030.75
2024-01-27T00:19:41.486Z,102041.25
2024-01-27T00:23:43.580Z,102028.19
2024-01-27T00:27:45.248Z,102027.59
2024-01-27T00:31:46.897Z,102041.66
2024-01-27T00:35:48.960Z,102035.31
2024-01-27T00:39:50.514Z,102051.44
2024-01-27T00:43:52.222Z,102027.13
2024-01-27T00:47:54.331Z,102046.56
2024-01-27T00:51:55.998Z,102044.91
2024-01-27T00:55:57.793Z,102047.22
2024-01-27T00:59:59.871Z,102050.31
2024-01-27T01:04:01.463Z,102059.84
2024-01-27T01:08:03.107Z,102058.59
2024-01-27T01:12:05.679Z,102071.31
2024-01-27T01:16:09.163Z,102068.41
2024-01-27T01:20:11.371Z,102076.59
2024-01-27T01:24:13.139Z,102084.88
2024-01-27T01:28:14.934Z,102088.47
2024-01-27T01:32:16.953Z,102090.38
2024-01-27T01:36:18.907Z,102088.03
2024-01-27T01:40:20.399Z,102096.09
2024-01-27T01:44:22.313Z,102088.03
2024-01-27T01:48:24.189Z,102088.47
2024-01-27T01:52:25.796Z,102080.97
2024-01-27T01:56:28.320Z,102091.72
2024-01-27T02:00:30.182Z,102105.31
2024-01-27T02:04:43.668Z,102105.38
2024-01-27T02:08:45.309Z,102091.16
2024-01-27T02:12:47.082Z,102105.75
2024-01-27T02:16:48.657Z,102107.69
2024-01-27T02:20:50.320Z,102103.38
2024-01-27T02:24:52.039Z,102110.94
2024-01-27T02:28:53.652Z,102118.06
2024-01-27T02:32:57.292Z,102117.22
2024-01-27T02:36:58.844Z,102128.41
2024-01-27T02:41:00.317Z,102137.31
2024-01-27T02:45:03.290Z,102146.53
2024-01-27T02:49:05.008Z,102158.34
2024-01-27T02:53:06.593Z,102130.00
2024-01-27T02:57:08.435Z,102156.81
2024-01-27T03:01:10.289Z,102145.91
2024-01-27T03:05:15.438Z,102142.06
2024-01-27T03:09:17.094Z,102163.56
2024-01-27T03:13:20.342Z,102156.53
2024-01-27T03:17:21.881Z,102160.06
2024-01-27T03:21:23.346Z,102151.03
2024-01-27T03:25:27.112Z,102184.50
2024-01-27T03:29:29.421Z,102177.88
2024-01-27T03:33:31.849Z,102175.00
2024-01-27T03:37:34.331Z,102165.31
2024-01-27T03:41:37.662Z,102164.72
2024-01-27T03:45:39.843Z,102168.03
2024-01-27T03:49:41.493Z,102164.13
2024-01-27T03:53:43.202Z,102171.22
2024-01-27T03:57:44.898Z,102176.50
2024-01-27T04:01:46.474Z,102167.06
2024-01-27T04:05:48.141Z,102174.06
2024-01-27T04:09:49.826Z,102200.09
2024-01-27T04:13:52.187Z,102195.81
2024-01-27T04:17:54.187Z,102194.41
2024-01-27T04:21:55.780Z,102205.34
2024-01-27T04:25:57.318Z,102196.16
2024-01-27T04:29:59.179Z,102218.47
2024-01-27T04:34:01.697Z,102224.09
2024-01-27T04:38:03.997Z,102235.28
2024-01-27T04:42:07.648Z,102235.78
2024-01-27T04:46:09.166Z,102237.88
2024-01-27T04:50:10.990Z,102258.09
2024-01-27T04:54:12.520Z,102252.88
2024-01-27T04:58:14.562Z,102267.47
2024-01-27T05:02:16.065Z,102281.31
2024-01-27T05:06:18.540Z,102285.13
2024-01-27T05:10:20.065Z,102292.66
2024-01-27T05:14:22.036Z,102290.22
2024-01-27T05:18:23.755Z,102302.03
2024-01-27T05:22:25.455Z,102312.13
2024-01-27T05:26:30.983Z,102319.06
2024-01-27T05:30:33.639Z,102320.03
2024-01-27T05:34:35.501Z,102322.69
2024-01-27T05:38:37.313Z,102330.19
2024-01-27T05:42:41.381Z,102320.41
2024-01-27T05:46:43.234Z,102325.22
2024-01-27T05:50:45.015Z,102326.13
2024-01-27T05:54:46.584Z,102323.72
2024-01-27T05:58:49.072Z,102332.47
2024-01-27T06:02:50.698Z,102324.19
2024-01-27T06:06:52.745Z,102341.56
2024-01-27T06:10:54.385Z,102340.22
2024-01-27T06:14:55.970Z,102349.19
2024-01-27T06:18:57.955Z,102357.66
2024-01-27T06:22:59.562Z,102358.50
2024-01-27T06:27:01.314Z,102363.84
2024-01-27T06:31:04.306Z,102364.66
2024-01-27T06:35:06.689Z,102392.91
2024-01-27T06:39:09.138Z,102367.38
2024-01-27T06:43:13.439Z,102369.16
2024-01-27T06:47:15.427Z,102377.56
2024-01-27T06:51:17.589Z,102385.28
2024-01-27T06:55:19.402Z,102409.53
2024-01-27T06:59:21.359Z,102410.84
2024-01-27T07:03:23.042Z,102423.97
2024-01-27T07:07:28.829Z,102421.69
2024-01-27T07:11:30.576Z,102428.00
2024-01-27T07:15:32.141Z,102437.28
2024-01-27T07:19:33.960Z,102457.63
2024-01-27T07:23:36.916Z,102452.41
2024-01-27T07:27:40.217Z,102452.34
2024-01-27T07:31:42.349Z,102461.75
2024-01-27T07:35:43.950Z,102477.13
2024-01-27T07:39:45.502Z,102481.66
2024-01-27T07:43:47.141Z,102483.84
2024-01-27T07:47:48.992Z,102488.91
2024-01-27T07:51:50.629Z,102488.28
2024-01-27T07:55:55.177Z,102495.97
2024-01-27T07:59:57.106Z,102502.97
2024-01-27T08:03:58.799Z,102504.88
2024-01-27T08:08:00.793Z,102511.16
2024-01-27T08:12:03.036Z,102506.09
2024-01-27T08:16:06.358Z,102514.41
2024-01-27T08:20:10.449Z,102515.84
2024-01-27T08:24:12.385Z,102510.00
2024-01-27T08:28:14.160Z,102529.84
2024-01-27T08:32:15.730Z,102529.88
2024-01-27T08:36:17.319Z,102541.53
2024-01-27T08:40:19.659Z,102555.81
2024-01-27T08:44:21.642Z,102551.81
2024-01-27T08:48:23.258Z,102560.25
2024-01-27T08:52:25.005Z,102555.75
2024-01-27T08:56:26.790Z,102564.31
2024-01-27T09:00:28.464Z,102570.00
2024-01-27T09:04:30.311Z,102568.88
2024-01-27T09:08:31.994Z,102566.38
2024-01-27T09:12:34.125Z,102570.63
2024-01-27T09:16:36.032Z,102579.38
2024-01-27T09:20:37.630Z,102575.25
2024-01-27T09:24:40.579Z,102587.78
2024-01-27T09:28:46.354Z,102587.94
2024-01-27T09:32:48.295Z,102591.50
2024-01-27T09:36:49.852Z,102594.59
2024-01-27T09:40:51.371Z,102597.63
2024-01-27T09:44:57.023Z,102590.94
2024-01-27T09:49:00.023Z,102608.09
2024-01-27T09:53:02.105Z,102606.41
2024-01-27T09:57:04.072Z,102623.41
2024-01-27T10:01:06.559Z,102620.06
2024-01-27T10:05:11.296Z,102624.91
2024-01-27T10:09:12.821Z,102622.59
2024-01-27T10:13:18.701Z,102626.75
2024-01-27T10:17:30.831Z,102628.03
2024-01-27T10:21:32.543Z,102612.16
2024-01-27T10:25:38.724Z,102611.53
2024-01-27T10:29:40.332Z,102620.13
2024-01-27T10:33:53.486Z,102625.34
2024-01-27T10:37:58.954Z,102628.84
2024-01-27T10:42:04.667Z,102632.28
2024-01-27T10:46:09.837Z,102636.28
2024-01-27T10:50:11.750Z,102640.00
2024-01-27T10:54:24.236Z,102637.63
2024-01-27T10:58:25.990Z,102630.53
2024-01-27T11:02:33.365Z,102632.28
2024-01-27T11:06:36.089Z,102637.25
2024-01-27T11:10:39.273Z,102637.38
2024-01-27T11:14:43.427Z,102651.72
2024-01-27T11:18:46.774Z,102652.88
2024-01-27T11:22:48.533Z,102640.81
2024-01-27T11:27:01.270Z,102646.31
2024-01-27T11:31:07.989Z,102665.69
2024-01-27T11:35:09.825Z,102663.91
2024-01-27T11:39:31.353Z,102665.22
2024-01-27T11:43:33.002Z,102659.94
2024-01-27T11:47:34.789Z,102674.53
2024-01-27T11:51:37.090Z,102662.84
2024-01-27T11:55:38.707Z,102660.88
2024-01-27T11:59:40.847Z,102673.34
2024-01-27T12:03:45.902Z,102668.72
2024-01-27T12:07:47.912Z,102682.00
2024-01-27T12:11:49.887Z,102688.03
2024-01-27T12:15:51.676Z,102696.00
2024-01-27T12:19:54.878Z,102710.72
2024-01-27T12:24:00.761Z,102719.84
2024-01-27T12:28:08.837Z,102721.84
2024-01-27T12:32:11.304Z,102719.91
2024-01-27T12:36:13.635Z,102715.31
2024-01-27T12:40:23.290Z,102715.34
2024-01-27T12:44:25.941Z,102715.88
2024-01-27T12:48:27.580Z,102718.28
2024-01-27T12:52:29.133Z,102716.03
2024-01-27T12:56:30.731Z,102708.88
2024-01-27T13:00:32.273Z,102719.81
2024-01-27T13:04:33.835Z,102709.22
2024-01-27T13:08:35.649Z,102711.66
2024-01-27T13:12:37.329Z,102704.97
2024-01-27T13:16:38.894Z,102715.09
2024-01-27T13:20:41.308Z,102715.72
2024-01-27T13:24:42.862Z,102716.03
2024-01-27T13:28:44.531Z,102720.91
2024-01-27T13:32:46.758Z,102722.09
2024-01-27T13:36:48.905Z,102743.66
2024-01-27T13:40:52.026Z,102734.63
2024-01-27T13:44:53.968Z,102732.41
2024-01-27T13:48:56.559Z,102724.63
2024-01-27T13:52:59.015Z,102717.13
2024-01-27T13:57:00.628Z,102730.97
2024-01-27T14:01:02.373Z,102724.25
2024-01-27T14:05:05.010Z,102722.97
2024-01-27T14:09:07.969Z,102731.91
2024-01-27T14:13:11.784Z,102731.22
2024-01-27T14:17:13.540Z,102738.91
2024-01-27T14:21:15.638Z,102729.72
2024-01-27T14:25:17.275Z,102744.28
2024-01-27T14:29:18.896Z,102747.44
2024-01-27T14:33:22.295Z,102735.59
2024-01-27T14:37:24.142Z,102759.91
2024-01-27T14:41:25.716Z,102762.34
2024-01-27T14:45:27.302Z,102761.13
2024-01-27T14:49:29.414Z,102762.63
2024-01-27T14:53:31.113Z,102763.19
2024-01-27T14:57:32.756Z,102768.16
2024-01-27T15:01:34.821Z,102774.66
2024-01-27T15:05:42.195Z,102779.41
2024-01-27T15:09:44.311Z,102775.19
2024-01-27T15:13:45.961Z,102778.16
2024-01-27T15:17:47.724Z,102784.66
2024-01-27T15:21:49.331Z,102800.09
2024-01-27T15:25:50.855Z,102807.84
2024-01-27T15:29:55.659Z,102803.38
2024-01-27T15:33:58.761Z,102812.50
2024-01-27T15:38:00.358Z,102806.25
2024-01-27T15:42:04.280Z,102806.47
2024-01-27T15:46:07.128Z,102802.53
2024-01-27T15:50:09.090Z,102809.75
2024-01-27T15:54:10.792Z,102817.56
2024-01-27T15:58:12.325Z,102824.16
2024-01-27T16:02:15.293Z,102824.66
2024-01-27T16:06:17.211Z,102832.19
2024-01-27T16:10:18.897Z,102828.06
2024-01-27T16:14:20.424Z,102841.41
2024-01-27T16:18:22.143Z,102848.50
2024-01-27T16:22:23.969Z,102847.28
2024-01-27T16:26:28.257Z,102859.88
2024-01-27T16:30:30.170Z,102863.31
2024-01-27T16:34:32.950Z,102858.50
2024-01-27T16:38:35.404Z,102861.94
2024-01-27T16:42:38.435Z,102864.16
2024-01-27T16:46:40.877Z,102866.19
2024-01-27T16:50:45.125Z,102865.25
2024-01-27T16:54:46.896Z,102860.31
2024-01-27T16:58:51.092Z,102872.25
2024-01-27T17:02:53.014Z,102874.66
2024-01-27T17:06:54.824Z,102868.97
2024-01-27T17:10:56.404Z,102869.41
2024-01-27T17:14:57.964Z,102868.09
2024-01-27T17:19:02.454Z,102866.53
2024-01-27T17:23:04.151Z,102859.66
2024-01-27T17:27:08.807Z,102870.25
2024-01-27T17:31:13.828Z,102875.81
2024-01-27T17:35:15.866Z,102870.63
2024-01-27T17:39:18.281Z,102878.13
2024-01-27T17:43:20.028Z,102890.00
2024-01-27T17:47:21.580Z,102887.75
2024-01-27T17:51:25.277Z,102891.81
2024-01-27T17:55:27.062Z,102898.22
2024-01-27T17:59:29.277Z,102905.31
2024-01-27T18:03:30.955Z,102904.16
2024-01-27T18:07:32.646Z,102900.22
2024-01-27T18:11:34.321Z,102908.34
2024-01-27T18:15:36.099Z,102911.91
2024-01-27T18:19:38.047Z,102907.44
2024-01-27T18:23:39.723Z,102914.81
2024-01-27T18:27:43.858Z,102919.06
2024-01-27T18:31:46.137Z,102912.50
2024-01-27T18:35:47.742Z,102915.56
2024-01-27T18:39:49.410Z,102928.69
2024-01-27T18:43:50.892Z,102935.56
2024-01-27T18:47:52.494Z,102953.50
2024-01-27T18:55:57.451Z,102951.19
2024-01-27T18:59:58.944Z,102956.44
2024-01-27T19:04:00.537Z,102961.91
2024-01-27T19:08:02.225Z,102969.59
2024-01-27T19:12:04.253Z,102955.59
2024-01-27T19:16:08.716Z,102956.81
2024-01-27T19:20:13.834Z,102960.00
2024-01-27T19:24:15.815Z,102957.88
2024-01-27T19:28:17.311Z,102964.97
2024-01-27T19:32:19.082Z,102956.16
2024-01-27T19:36:20.673Z,102963.50
2024-01-27T19:40:22.187Z,102969.63
2024-01-27T19:44:23.743Z,102979.19
2024-01-27T19:48:26.883Z,102977.91
2024-01-27T19:52:28.439Z,102962.56
2024-01-27T19:56:29.916Z,102975.34
2024-01-27T20:00:34.683Z,102988.56
2024-01-27T20:04:36.926Z,102976.38
2024-01-27T20:08:39.565Z,102975.88
2024-01-27T20:12:44.421Z,102985.69
2024-01-27T20:16:48.156Z,102982.19
2024-01-27T20:20:54.100Z,102992.22
2024-01-27T20:24:56.309Z,102982.28
2024-01-27T20:28:57.851Z,102984.16
2024-01-27T20:33:00.107Z,102982.59
2024-01-27T20:37:02.545Z,103004.28
2024-01-27T20:41:04.482Z,103002.41
2024-01-27T20:45:06.393Z,103005.41
2024-01-27T20:49:08.237Z,103001.19
2024-01-27T20:53:10.832Z,102998.88
2024-01-27T20:57:12.413Z,103004.69
2024-01-27T21:01:14.355Z,103004.81
2024-01-27T21:05:16.157Z,103012.44
2024-01-27T21:09:17.673Z,103003.06
2024-01-27T21:13:20.095Z,103019.75
2024-01-27T21:17:21.584Z,103023.56
2024-01-27T21:21:23.108Z,103023.63
2024-01-27T21:25:24.652Z,103026.97
2024-01-27T21:29:26.244Z,103026.50
2024-01-27T21:33:28.137Z,103027.84
2024-01-27T21:37:30.259Z,103035.00
2024-01-27T21:41:31.754Z,103035.63
2024-01-27T21:45:33.357Z,103027.06
2024-01-27T21:49:35.027Z,103024.19
2024-01-27T21:53:39.113Z,103031.88
2024-01-27T21:57:40.610Z,103027.81
2024-01-27T22:01:42.522Z,103036.53
2024-01-27T22:05:44.612Z,103036.19
2024-01-27T22:09:46.353Z,103039.88
2024-01-27T22:13:48.212Z,103036.34
2024-01-27T22:17:49.806Z,103038.25
2024-01-27T22:21:54.492Z,103041.91
2024-01-27T22:25:56.312Z,103041.47
2024-01-27T22:29:57.937Z,103041.53
2024-01-27T22:33:59.476Z,103030.00
2024-01-27T22:38:01.040Z,103048.06
2024-01-27T22:42:02.827Z,103051.94
2024-01-27T22:46:04.518Z,103053.44
2024-01-27T22:50:06.794Z,103044.66
2024-01-27T22:54:08.353Z,103047.94
2024-01-27T22:58:10.018Z,103051.78
2024-01-27T23:02:11.894Z,103042.19
2024-01-27T23:06:14.824Z,103040.19
2024-01-27T23:10:16.432Z,103039.06
2024-01-27T23:14:17.928Z,103046.47
2024-01-27T23:18:19.734Z,103050.81
2024-01-27T23:22:22.143Z,103049.16
2024-01-27T23:26:24.933Z,103044.78
2024-01-27T23:30:26.568Z,103048.97
2024-01-27T23:34:28.383Z,103047.28
2024-01-27T23:38:30.241Z,103047.09
2024-01-27T23:42:32.137Z,103037.16
2024-01-27T23:46:33.901Z,103036.09
2024-01-27T23:50:35.435Z,103038.47
2024-01-27T23:54:38.312Z,103041.47
2024-01-27T23:58:39.871Z,103044.00
